createdAt,value
2022-12-23T00:01:07.789Z,96665.50
2022-12-23T00:03:34.179Z,96665.41
2022-12-23T00:06:00.703Z,96663.69
2022-12-23T00:08:26.986Z,96663.69
2022-12-23T00:10:53.247Z,96663.69
2022-12-23T00:13:19.515Z,96662.88
2022-12-23T00:15:45.778Z,96662.50
2022-12-23T00:18:12.074Z,96659.97
2022-12-23T00:20:38.343Z,96648.28
2022-12-23T00:23:04.633Z,96645.22
2022-12-23T00:25:30.880Z,96638.28
2022-12-23T00:27:57.152Z,96625.97
2022-12-23T00:30:23.418Z,96636.66
2022-12-23T00:32:49.668Z,96637.91
2022-12-23T00:35:16.019Z,96642.31
2022-12-23T00:37:42.280Z,96634.38
2022-12-23T00:40:08.541Z,96637.66
2022-12-23T00:42:34.785Z,96639.91
2022-12-23T00:45:01.038Z,96634.28
2022-12-23T00:47:27.303Z,96639.75
2022-12-23T00:49:53.547Z,96637.19
2022-12-23T00:52:19.803Z,96628.41
2022-12-23T00:54:46.074Z,96629.81
2022-12-23T00:57:12.360Z,96639.16
2022-12-23T00:59:38.596Z,96645.56
2022-12-23T01:02:05.049Z,96640.22
2022-12-23T01:04:31.489Z,96633.50
2022-12-23T01:06:57.725Z,96642.13
2022-12-23T01:09:23.999Z,96641.63
2022-12-23T01:11:50.247Z,96649.34
2022-12-23T01:14:16.527Z,96650.50
2022-12-23T01:16:42.826Z,96646.97
2022-12-23T01:19:09.093Z,96654.78
2022-12-23T01:21:35.349Z,96650.53
2022-12-23T01:24:01.609Z,96643.88
2022-12-23T01:26:27.867Z,96639.38
2022-12-23T01:28:54.145Z,96653.88
2022-12-23T01:31:20.425Z,96660.78
2022-12-23T01:33:46.742Z,96657.56
2022-12-23T01:36:13.005Z,96658.66
2022-12-23T01:38:39.270Z,96655.72
2022-12-23T01:41:05.515Z,96653.09
2022-12-23T01:43:31.770Z,96655.53
2022-12-23T01:45:58.051Z,96666.22
2022-12-23T01:48:24.351Z,96674.31
2022-12-23T01:50:50.627Z,96670.53
2022-12-23T01:53:16.885Z,96672.94
2022-12-23T01:55:43.146Z,96663.84
2022-12-23T01:58:09.413Z,96661.22
2022-12-23T02:00:35.698Z,96654.00
2022-12-23T02:03:02.053Z,96667.63
2022-12-23T02:05:28.353Z,96664.66
2022-12-23T02:07:54.620Z,96665.72
2022-12-23T02:10:20.990Z,96667.59
2022-12-23T02:12:47.283Z,96661.44
2022-12-23T02:15:13.522Z,96652.34
2022-12-23T02:17:39.756Z,96644.84
2022-12-23T02:20:06.030Z,96649.16
2022-12-23T02:22:32.305Z,96653.16
2022-12-23T02:24:58.604Z,96656.63
2022-12-23T02:27:24.844Z,96656.63
2022-12-23T02:29:51.158Z,96652.25
2022-12-23T02:32:17.427Z,96652.75
2022-12-23T02:34:43.697Z,96645.53
2022-12-23T02:37:09.959Z,96659.16
2022-12-23T02:39:36.213Z,96660.28
2022-12-23T02:42:02.510Z,96657.09
2022-12-23T02:44:28.769Z,96658.41
2022-12-23T02:46:55.042Z,96657.09
2022-12-23T02:49:21.281Z,96648.81
2022-12-23T02:51:47.520Z,96654.41
2022-12-23T02:54:13.805Z,96655.72
2022-12-23T02:56:40.108Z,96651.44
2022-12-23T02:59:06.364Z,96655.78
2022-12-23T03:01:32.697Z,96661.38
2022-12-23T03:03:59.092Z,96659.22
2022-12-23T03:06:25.447Z,96658.13
2022-12-23T03:08:51.717Z,96655.19
2022-12-23T03:11:17.998Z,96646.94
2022-12-23T03:13:44.272Z,96647.16
2022-12-23T03:16:10.602Z,96652.50
2022-12-23T03:18:36.882Z,96642.81
2022-12-23T03:21:03.130Z,96626.81
2022-12-23T03:23:29.391Z,96632.66
2022-12-23T03:25:55.663Z,96638.53
2022-12-23T03:28:21.925Z,96644.44
2022-12-23T03:30:48.209Z,96645.25
2022-12-23T03:33:14.483Z,96644.97
2022-12-23T03:35:40.752Z,96644.19
2022-12-23T03:38:06.996Z,96642.00
2022-12-23T03:40:33.268Z,96635.91
2022-12-23T03:42:59.508Z,96638.06
2022-12-23T03:45:38.618Z,96634.56
2022-12-23T03:48:05.874Z,96624.94
2022-12-23T03:50:32.148Z,96637.50
2022-12-23T03:52:58.479Z,96627.88
2022-12-23T03:55:24.754Z,96624.69
2022-12-23T03:57:51.007Z,96633.00
2022-12-23T04:00:17.263Z,96635.69
2022-12-23T04:02:43.573Z,96637.25
2022-12-23T04:05:09.917Z,96638.56
2022-12-23T04:07:36.189Z,96635.91
2022-12-23T04:10:02.447Z,96642.56
2022-12-23T04:12:28.706Z,96643.13
2022-12-23T04:14:54.998Z,96633.47
2022-12-23T04:17:21.293Z,96635.03
2022-12-23T04:19:47.551Z,96638.72
2022-12-23T04:22:13.842Z,96628.28
2022-12-23T04:24:40.101Z,96627.47
2022-12-23T04:27:06.371Z,96631.22
2022-12-23T04:29:32.629Z,96631.97
2022-12-23T04:31:58.951Z,96626.63
2022-12-23T04:34:25.325Z,96629.31
2022-12-23T04:36:51.579Z,96642.94
2022-12-23T04:39:17.832Z,96639.69
2022-12-23T04:41:44.089Z,96634.91
2022-12-23T04:44:10.360Z,96643.19
2022-12-23T04:46:36.670Z,96643.47
2022-12-23T04:49:02.997Z,96656.88
2022-12-23T04:51:29.268Z,96650.97
2022-12-23T04:53:55.533Z,96646.66
2022-12-23T04:56:21.801Z,96649.34
2022-12-23T04:58:48.081Z,96648.28
2022-12-23T05:01:14.423Z,96646.47
2022-12-23T05:03:40.762Z,96643.53
2022-12-23T05:06:07.051Z,96632.03
2022-12-23T05:08:33.300Z,96630.19
2022-12-23T05:10:59.580Z,96636.16
2022-12-23T05:13:25.848Z,96635.94
2022-12-23T05:15:52.207Z,96632.72
2022-12-23T05:18:18.543Z,96634.84
2022-12-23T05:20:44.814Z,96643.91
2022-12-23T05:23:11.067Z,96637.50
2022-12-23T05:25:37.335Z,96649.81
2022-12-23T05:28:03.637Z,96655.69
2022-12-23T05:30:29.901Z,96646.03
2022-12-23T05:32:56.144Z,96650.03
2022-12-23T05:35:22.434Z,96636.41
2022-12-23T05:37:48.691Z,96646.34
2022-12-23T05:40:18.485Z,96644.72
2022-12-23T05:42:47.964Z,96625.44
2022-12-23T05:45:14.212Z,96625.19
2022-12-23T05:47:40.474Z,96629.22
2022-12-23T05:50:07.227Z,96617.66
2022-12-23T05:52:33.598Z,96615.50
2022-12-23T05:54:59.892Z,96612.56
2022-12-23T05:57:26.138Z,96612.03
2022-12-23T05:59:52.391Z,96620.06
2022-12-23T06:02:18.831Z,96613.38
2022-12-23T06:04:45.189Z,96616.88
2022-12-23T06:07:11.482Z,96620.84
2022-12-23T06:09:37.732Z,96620.84
2022-12-23T06:12:03.993Z,96619.00
2022-12-23T06:14:30.263Z,96632.13
2022-12-23T06:16:56.595Z,96630.75
2022-12-23T06:19:22.872Z,96638.78
2022-12-23T06:21:49.145Z,96632.13
2022-12-23T06:24:15.421Z,96626.50
2022-12-23T06:26:41.672Z,96622.22
2022-12-23T06:29:07.940Z,96617.13
2022-12-23T06:31:34.263Z,96620.34
2022-12-23T06:34:00.595Z,96638.53
2022-12-23T06:36:26.883Z,96629.13
2022-12-23T06:38:53.143Z,96628.59
2022-12-23T06:41:19.429Z,96635.03
2022-12-23T06:43:49.850Z,96641.47
2022-12-23T06:46:18.899Z,96640.13
2022-12-23T06:48:45.232Z,96648.41
2022-12-23T06:51:11.473Z,96650.53
2022-12-23T06:53:37.732Z,96663.94
2022-12-23T06:56:03.999Z,96654.59
2022-12-23T06:58:30.265Z,96667.44
2022-12-23T07:00:56.531Z,96673.09
2022-12-23T07:03:22.851Z,96680.31
2022-12-23T07:05:49.192Z,96659.47
2022-12-23T07:08:15.460Z,96653.56
2022-12-23T07:10:41.710Z,96647.41
2022-12-23T07:13:07.941Z,96653.06
2022-12-23T07:15:34.217Z,96659.22
2022-12-23T07:18:00.478Z,96654.13
2022-12-23T07:20:26.712Z,96665.59
2022-12-23T07:22:52.968Z,96672.56
2022-12-23T07:25:19.241Z,96670.44
2022-12-23T07:27:45.499Z,96681.09
2022-12-23T07:30:11.757Z,96683.16
2022-12-23T07:32:38.027Z,96679.13
2022-12-23T07:35:04.272Z,96693.31
2022-12-23T07:37:30.633Z,96692.00
2022-12-23T07:39:56.886Z,96688.47
2022-12-23T07:45:09.376Z,96666.25
2022-12-23T07:47:35.625Z,96657.47
2022-12-23T07:50:01.914Z,96668.72
2022-12-23T07:52:28.189Z,96682.59
2022-12-23T07:54:54.449Z,96681.50
2022-12-23T07:57:20.690Z,96686.91
2022-12-23T07:59:46.947Z,96685.03
2022-12-23T08:02:13.387Z,96679.94
2022-12-23T08:04:45.802Z,96673.50
2022-12-23T08:07:12.669Z,96675.38
2022-12-23T08:09:38.954Z,96679.97
2022-12-23T08:12:05.240Z,96681.34
2022-12-23T08:14:31.501Z,96681.25
2022-12-23T08:16:57.812Z,96673.00
2022-12-23T08:19:24.081Z,96673.22
2022-12-23T08:21:50.331Z,96680.13
2022-12-23T08:24:16.608Z,96675.28
2022-12-23T08:26:42.889Z,96672.09
2022-12-23T08:29:09.158Z,96662.00
2022-12-23T08:31:35.479Z,96667.91
2022-12-23T08:34:01.784Z,96675.94
2022-12-23T08:36:28.061Z,96671.94
2022-12-23T08:38:54.313Z,96677.06
2022-12-23T08:41:20.605Z,96677.59
2022-12-23T08:43:46.870Z,96686.19
2022-12-23T08:46:13.143Z,96681.13
2022-12-23T08:48:42.588Z,96685.72
2022-12-23T08:51:13.299Z,96696.19
2022-12-23T08:53:39.566Z,96700.22
2022-12-23T08:56:05.868Z,96698.09
2022-12-23T08:58:32.125Z,96696.78
2022-12-23T09:00:58.400Z,96708.03
2022-12-23T09:03:24.779Z,96719.31
2022-12-23T09:05:51.217Z,96716.38
2022-12-23T09:08:17.517Z,96719.34
2022-12-23T09:10:43.767Z,96723.09
2022-12-23T09:13:10.020Z,96715.88
2022-12-23T09:15:36.293Z,96708.63
2022-12-23T09:18:02.553Z,96703.84
2022-12-23T09:20:28.811Z,96713.25
2022-12-23T09:22:55.051Z,96719.97
2022-12-23T09:25:21.318Z,96726.94
2022-12-23T09:27:47.591Z,96728.56
2022-12-23T09:30:13.843Z,96724.56
2022-12-23T09:32:41.154Z,96732.34
2022-12-23T09:35:07.416Z,96739.63
2022-12-23T09:37:33.681Z,96735.88
2022-12-23T09:39:59.959Z,96744.72
2022-12-23T09:42:26.243Z,96731.06
2022-12-23T09:44:52.510Z,96730.00
2022-12-23T09:47:18.796Z,96726.00
2022-12-23T09:49:45.052Z,96722.53
2022-12-23T09:52:11.326Z,96723.88
2022-12-23T09:54:37.620Z,96719.63
2022-12-23T09:57:03.879Z,96718.56
2022-12-23T09:59:30.125Z,96710.53
2022-12-23T10:01:56.493Z,96722.88
2022-12-23T10:04:22.973Z,96717.00
2022-12-23T10:06:49.289Z,96718.06
2022-12-23T10:09:15.548Z,96716.44
2022-12-23T10:11:41.813Z,96726.88
2022-12-23T10:14:08.081Z,96707.59
2022-12-23T10:16:34.380Z,96709.50
2022-12-23T10:19:00.665Z,96704.16
2022-12-23T10:21:26.940Z,96701.22
2022-12-23T10:23:53.239Z,96711.47
2022-12-23T10:26:19.523Z,96692.97
2022-12-23T10:28:45.776Z,96708.00
2022-12-23T10:31:38.536Z,96707.75
2022-12-23T10:33:58.287Z,96712.84
2022-12-23T10:36:24.634Z,96714.16
2022-12-23T10:38:50.961Z,96707.19
2022-12-23T10:41:17.229Z,96706.72
2022-12-23T10:43:43.501Z,96718.75
2022-12-23T10:46:09.788Z,96717.16
2022-12-23T10:48:36.037Z,96714.25
2022-12-23T10:51:03.036Z,96711.31
2022-12-23T10:53:29.290Z,96707.03
2022-12-23T10:55:55.589Z,96705.44
2022-12-23T10:58:21.842Z,96716.16
2022-12-23T11:00:48.203Z,96712.66
2022-12-23T11:03:14.634Z,96702.47
2022-12-23T11:05:41.014Z,96701.38
2022-12-23T11:08:07.532Z,96697.38
2022-12-23T11:10:33.885Z,96693.91
2022-12-23T11:13:00.156Z,96700.59
2022-12-23T11:15:26.439Z,96702.19
2022-12-23T11:17:52.740Z,96700.88
2022-12-23T11:20:19.083Z,96702.47
2022-12-23T11:22:45.352Z,96703.53
2022-12-23T11:25:11.637Z,96704.59
2022-12-23T11:27:37.907Z,96711.28
2022-12-23T11:30:04.155Z,96708.44
2022-12-23T11:32:30.440Z,96713.06
2022-12-23T11:34:56.746Z,96716.78
2022-12-23T11:37:23.050Z,96731.63
2022-12-23T11:39:49.324Z,96716.00
2022-12-23T11:42:15.618Z,96723.34
2022-12-23T11:44:41.928Z,96719.28
2022-12-23T11:47:08.208Z,96706.72
2022-12-23T11:49:34.476Z,96712.63
2022-12-23T11:52:00.759Z,96703.81
2022-12-23T11:54:27.030Z,96711.00
2022-12-23T11:56:53.351Z,96711.31
2022-12-23T11:59:19.641Z,96713.50
2022-12-23T12:01:46.000Z,96710.00
2022-12-23T12:04:12.335Z,96713.47
2022-12-23T12:06:38.649Z,96697.88
2022-12-23T12:09:04.915Z,96697.88
2022-12-23T12:11:31.181Z,96699.19
2022-12-23T12:13:57.457Z,96701.41
2022-12-23T12:16:23.810Z,96698.22
2022-12-23T12:18:55.163Z,96699.56
2022-12-23T12:21:22.033Z,96690.47
2022-12-23T12:23:48.352Z,96706.19
2022-12-23T12:26:14.644Z,96708.63
2022-12-23T12:28:40.917Z,96699.47
2022-12-23T12:31:07.269Z,96701.38
2022-12-23T12:33:33.531Z,96699.72
2022-12-23T12:36:05.157Z,96694.41
2022-12-23T12:38:31.823Z,96685.06
2022-12-23T12:40:58.146Z,96680.78
2022-12-23T12:43:24.531Z,96685.81
2022-12-23T12:45:50.948Z,96695.00
2022-12-23T12:48:18.932Z,96693.59
2022-12-23T12:50:45.377Z,96691.50
2022-12-23T12:53:11.755Z,96685.63
2022-12-23T12:55:38.016Z,96685.91
2022-12-23T12:58:04.358Z,96673.31
2022-12-23T13:00:30.645Z,96681.16
2022-12-23T13:02:57.020Z,96676.06
2022-12-23T13:05:23.338Z,96677.97
2022-12-23T13:07:49.616Z,96667.53
2022-12-23T13:10:15.904Z,96663.03
2022-12-23T13:12:42.162Z,96662.50
2022-12-23T13:15:08.423Z,96663.31
2022-12-23T13:17:34.685Z,96655.56
2022-12-23T13:20:00.956Z,96664.91
2022-12-23T13:22:27.220Z,96665.72
2022-12-23T13:24:53.486Z,96670.34
2022-12-23T13:27:19.745Z,96676.44
2022-12-23T13:29:46.027Z,96675.16
2022-12-23T13:32:12.274Z,96683.75
2022-12-23T13:34:38.545Z,96675.69
2022-12-23T13:37:04.840Z,96672.69
2022-12-23T13:39:31.217Z,96671.34
2022-12-23T13:42:04.584Z,96675.06
2022-12-23T13:44:31.649Z,96680.69
2022-12-23T13:46:57.936Z,96689.81
2022-12-23T13:49:24.195Z,96687.38
2022-12-23T13:51:50.445Z,96684.41
2022-12-23T13:54:16.742Z,96672.38
2022-12-23T13:56:43.038Z,96674.25
2022-12-23T13:59:09.365Z,96672.63
2022-12-23T14:01:35.689Z,96672.38
2022-12-23T14:04:01.949Z,96670.72
2022-12-23T14:06:28.362Z,96671.31
2022-12-23T14:08:54.612Z,96657.63
2022-12-23T14:11:20.882Z,96662.69
2022-12-23T14:13:47.170Z,96652.28
2022-12-23T14:16:13.560Z,96657.91
2022-12-23T14:18:39.920Z,96664.91
2022-12-23T14:21:06.168Z,96668.91
2022-12-23T14:23:32.427Z,96678.25
2022-12-23T14:25:58.689Z,96672.59
2022-12-23T14:28:24.966Z,96685.75
2022-12-23T14:30:51.392Z,96692.75
2022-12-23T14:33:17.670Z,96684.97
2022-12-23T14:35:43.939Z,96681.78
2022-12-23T14:38:10.207Z,96671.09
2022-12-23T14:40:36.485Z,96674.50
2022-12-23T14:43:03.276Z,96671.84
2022-12-23T14:45:29.569Z,96664.88
2022-12-23T14:47:55.835Z,96673.47
2022-12-23T14:50:22.084Z,96683.91
2022-12-23T14:52:48.457Z,96683.91
2022-12-23T14:55:30.124Z,96684.22
2022-12-23T14:57:57.289Z,96690.88
2022-12-23T15:00:23.577Z,96684.97
2022-12-23T15:02:49.899Z,96673.72
2022-12-23T15:05:16.208Z,96681.53
2022-12-23T15:07:42.600Z,96679.63
2022-12-23T15:10:08.895Z,96670.25
2022-12-23T15:12:35.164Z,96674.56
2022-12-23T15:15:01.436Z,96678.28
2022-12-23T15:17:27.710Z,96685.25
2022-12-23T15:19:53.968Z,96682.31
2022-12-23T15:22:25.638Z,96685.53
2022-12-23T15:24:56.470Z,96695.50
2022-12-23T15:27:27.959Z,96690.66
2022-12-23T15:29:55.457Z,96690.97
2022-12-23T15:32:21.723Z,96691.78
2022-12-23T15:34:47.988Z,96688.84
2022-12-23T15:37:14.364Z,96686.69
2022-12-23T15:39:40.718Z,96682.16
2022-12-23T15:42:07.960Z,96692.84
2022-12-23T15:44:34.396Z,96696.59
2022-12-23T15:47:01.223Z,96676.75
2022-12-23T15:49:27.808Z,96664.97
2022-12-23T15:52:13.795Z,96684.28
2022-12-23T15:54:40.797Z,96684.28
2022-12-23T15:57:07.289Z,96686.44
2022-12-23T15:59:33.784Z,96677.59
2022-12-23T16:02:00.370Z,96672.75
2022-12-23T16:04:27.010Z,96685.28
2022-12-23T16:06:53.504Z,96701.41
2022-12-23T16:09:19.939Z,96700.84
2022-12-23T16:11:46.581Z,96686.84
2022-12-23T16:14:13.162Z,96700.22
2022-12-23T16:16:39.705Z,96695.44
2022-12-23T16:19:06.203Z,96692.19
2022-12-23T16:21:32.589Z,96692.66
2022-12-23T16:23:59.073Z,96681.72
2022-12-23T16:26:25.463Z,96673.16
2022-12-23T16:28:51.798Z,96688.47
2022-12-23T16:31:18.878Z,96680.16
2022-12-23T16:33:45.376Z,96683.31
2022-12-23T16:36:11.871Z,96691.38
2022-12-23T16:38:38.327Z,96690.50
2022-12-23T16:41:04.770Z,96681.16
2022-12-23T16:43:31.087Z,96680.28
2022-12-23T16:45:57.403Z,96681.66
2022-12-23T16:48:23.732Z,96688.34
2022-12-23T16:50:50.087Z,96694.63
2022-12-23T16:53:16.329Z,96696.22
2022-12-23T16:55:50.295Z,96687.06
2022-12-23T16:58:18.910Z,96682.78
2022-12-23T17:00:45.189Z,96678.53
2022-12-23T17:03:11.469Z,96671.25
2022-12-23T17:05:37.739Z,96665.38
2022-12-23T17:08:04.033Z,96679.34
2022-12-23T17:10:30.280Z,96675.34
2022-12-23T17:12:56.551Z,96684.19
2022-12-23T17:15:22.810Z,96696.97
2022-12-23T17:17:49.083Z,96696.22
2022-12-23T17:20:15.342Z,96696.47
2022-12-23T17:22:41.609Z,96686.56
2022-12-23T17:25:07.998Z,96700.00
2022-12-23T17:27:34.288Z,96701.34
2022-12-23T17:30:00.573Z,96707.19
2022-12-23T17:32:27.028Z,96702.31
2022-12-23T17:34:53.338Z,96701.56
2022-12-23T17:37:19.595Z,96718.44
2022-12-23T17:39:45.870Z,96718.72
2022-12-23T17:42:12.127Z,96718.97
2022-12-23T17:44:38.404Z,96721.41
2022-12-23T17:47:04.681Z,96718.50
2022-12-23T17:49:30.983Z,96722.47
2022-12-23T17:51:57.248Z,96744.38
2022-12-23T17:54:23.522Z,96739.75
2022-12-23T17:56:49.784Z,96760.19
2022-12-23T17:59:16.069Z,96779.47
2022-12-23T18:01:42.388Z,96778.75
2022-12-23T18:04:08.720Z,96776.50
2022-12-23T18:06:34.972Z,96798.03
2022-12-23T18:09:01.232Z,96767.91
2022-12-23T18:11:27.508Z,96773.84
2022-12-23T18:13:53.779Z,96774.41
2022-12-23T18:16:20.091Z,96780.59
2022-12-23T18:18:47.176Z,96766.41
2022-12-23T18:21:13.602Z,96768.84
2022-12-23T18:23:39.868Z,96779.94
2022-12-23T18:26:06.146Z,96789.81
2022-12-23T18:28:32.438Z,96785.56
2022-12-23T18:30:58.822Z,96793.88
2022-12-23T18:33:25.123Z,96801.38
2022-12-23T18:35:51.378Z,96806.19
2022-12-23T18:38:17.708Z,96803.53
2022-12-23T18:40:43.999Z,96804.38
2022-12-23T18:43:10.263Z,96801.44
2022-12-23T18:45:36.522Z,96802.31
2022-12-23T18:48:02.795Z,96805.56
2022-12-23T18:50:29.110Z,96808.81
2022-12-23T18:52:55.360Z,96808.97
2022-12-23T18:55:21.645Z,96817.81
2022-12-23T18:57:47.912Z,96804.47
2022-12-23T19:00:14.185Z,96820.84
2022-12-23T19:02:40.498Z,96818.69
2022-12-23T19:05:06.805Z,96802.00
2022-12-23T19:07:33.080Z,96803.31
2022-12-23T19:09:59.356Z,96786.41
2022-12-23T19:12:25.629Z,96782.16
2022-12-23T19:14:51.925Z,96773.63
2022-12-23T19:17:18.198Z,96773.66
2022-12-23T19:19:44.492Z,96770.72
2022-12-23T19:22:10.763Z,96775.56
2022-12-23T19:24:42.487Z,96787.09
2022-12-23T19:27:18.226Z,96780.94
2022-12-23T19:29:44.498Z,96784.69
2022-12-23T19:32:10.752Z,96779.31
2022-12-23T19:34:37.030Z,96785.50
2022-12-23T19:37:03.696Z,96791.63
2022-12-23T19:39:29.977Z,96800.22
2022-12-23T19:41:56.254Z,96815.22
2022-12-23T19:44:22.552Z,96798.88
2022-12-23T19:46:48.900Z,96772.56
2022-12-23T19:49:19.910Z,96765.56
2022-12-23T19:51:46.718Z,96769.88
2022-12-23T19:54:13.001Z,96754.31
2022-12-23T19:56:39.249Z,96765.25
2022-12-23T19:59:05.543Z,96776.28
2022-12-23T20:01:31.905Z,96775.78
2022-12-23T20:03:58.227Z,96757.28
2022-12-23T20:06:24.510Z,96739.56
2022-12-23T20:08:54.945Z,96742.53
2022-12-23T20:11:24.429Z,96751.94
2022-12-23T20:13:50.705Z,96750.06
2022-12-23T20:16:17.075Z,96752.50
2022-12-23T20:18:43.389Z,96759.47
2022-12-23T20:21:09.671Z,96764.03
2022-12-23T20:23:35.923Z,96767.25
2022-12-23T20:26:02.163Z,96766.16
2022-12-23T20:28:28.437Z,96766.44
2022-12-23T20:30:54.761Z,96753.81
2022-12-23T20:33:21.063Z,96757.06
2022-12-23T20:35:47.334Z,96765.38
2022-12-23T20:38:13.595Z,96768.03
2022-12-23T20:40:39.860Z,96754.38
2022-12-23T20:43:10.349Z,96745.50
2022-12-23T20:45:39.697Z,96760.53
2022-12-23T20:48:06.060Z,96757.31
2022-12-23T20:50:32.350Z,96755.72
2022-12-23T20:52:58.636Z,96750.91
2022-12-23T20:55:24.908Z,96746.34
2022-12-23T20:57:51.194Z,96747.66
2022-12-23T21:00:17.467Z,96769.13
2022-12-23T21:02:43.770Z,96770.19
2022-12-23T21:05:10.090Z,96747.66
2022-12-23T21:07:36.381Z,96748.44
2022-12-23T21:10:02.650Z,96762.91
2022-12-23T21:12:28.922Z,96758.63
2022-12-23T21:14:55.182Z,96752.97
2022-12-23T21:17:21.474Z,96746.00
2022-12-23T21:19:47.736Z,96753.41
2022-12-23T21:22:14.000Z,96747.00
2022-12-23T21:24:40.249Z,96748.66
2022-12-23T21:27:06.544Z,96739.53
2022-12-23T21:29:32.830Z,96759.16
2022-12-23T21:31:59.230Z,96779.28
2022-12-23T21:34:25.624Z,96777.66
2022-12-23T21:36:51.970Z,96765.84
2022-12-23T21:39:18.287Z,96759.72
2022-12-23T21:41:44.564Z,96766.16
2022-12-23T21:44:10.833Z,96783.06
2022-12-23T21:46:37.478Z,96778.81
2022-12-23T21:49:03.761Z,96780.91
2022-12-23T21:51:38.541Z,96794.03
2022-12-23T21:54:05.593Z,96786.53
2022-12-23T21:56:31.888Z,96762.91
2022-12-23T21:58:58.148Z,96766.72
2022-12-23T22:01:24.476Z,96758.41
2022-12-23T22:03:50.781Z,96756.25
2022-12-23T22:06:17.090Z,96742.28
2022-12-23T22:08:43.378Z,96732.09
2022-12-23T22:11:09.637Z,96751.94
2022-12-23T22:13:35.942Z,96753.50
2022-12-23T22:16:02.273Z,96759.69
2022-12-23T22:18:28.560Z,96746.06
2022-12-23T22:20:54.825Z,96757.06
2022-12-23T22:23:21.102Z,96762.91
2022-12-23T22:25:47.384Z,96744.69
2022-12-23T22:28:13.646Z,96741.53
2022-12-23T22:30:39.926Z,96747.66
2022-12-23T22:33:06.197Z,96731.03
2022-12-23T22:35:32.518Z,96719.22
2022-12-23T22:37:58.802Z,96742.59
2022-12-23T22:40:25.245Z,96746.09
2022-12-23T22:42:51.537Z,96754.16
2022-12-23T22:45:17.870Z,96754.66
2022-12-23T22:47:44.409Z,96752.25
2022-12-23T22:50:10.721Z,96760.53
2022-12-23T22:52:36.993Z,96758.09
2022-12-23T22:55:03.294Z,96755.16
2022-12-23T22:57:29.602Z,96768.31
2022-12-23T22:59:55.882Z,96776.06
2022-12-23T23:02:22.145Z,96756.72
2022-12-23T23:04:48.442Z,96761.59
2022-12-23T23:07:14.724Z,96768.84
2022-12-23T23:09:40.994Z,96771.50
2022-12-23T23:12:07.282Z,96770.50
2022-12-23T23:14:33.579Z,96764.56
2022-12-23T23:16:59.933Z,96770.69
2022-12-23T23:19:26.279Z,96777.91
2022-12-23T23:21:52.571Z,96797.66
2022-12-23T23:24:18.828Z,96798.16
2022-12-23T23:26:45.080Z,96809.06
2022-12-23T23:29:11.341Z,96819.00
2022-12-23T23:31:42.776Z,96822.16
2022-12-23T23:34:09.751Z,96832.81
2022-12-23T23:36:36.045Z,96822.84
2022-12-23T23:39:02.356Z,96814.16
2022-12-23T23:41:28.620Z,96823.59
2022-12-23T23:43:54.902Z,96820.56
2022-12-23T23:46:21.302Z,96824.13
2022-12-23T23:48:47.624Z,96829.75
2022-12-23T23:51:13.890Z,96849.31
2022-12-23T23:53:40.199Z,96846.09
2022-12-23T23:56:06.537Z,96857.19
2022-12-23T23:58:32.911Z,96848.16
